Bartow, Florida
Current Conditions -  °F | °C
As of 10:47 AM on Tuesday 21 Oct 2014 (Local Time) from KBOW Reporting Station
Broken Clouds Broken Clouds  
Wind Chill: 73°   Ceiling: 9000
Heat Index: 73°   Visibility: 10mi
Dew Point: 70°   Wind: 0mph
Humidity: 88%   Direction: NA
Pressure: 30"   Gusts: NA
Location:  27.9°N, 81.84°W
Report Text: KBOW 211447Z 00000KT 10SM SCT060 BKN090 23/21 A3000
Loading
Personal Weather Stations






























Interactive Weather Map
Tropical Storm Tracking
New forecast layout! Learn more

10-Day Weather Forecast

Advertisements
Track Severe Weather on mobile